createdAt,value
2022-11-19T00:01:31.949Z,68.90
2022-11-19T00:03:59.051Z,68.70
2022-11-19T00:06:27.711Z,68.48
2022-11-19T00:08:55.060Z,69.02
2022-11-19T00:11:43.470Z,68.54
2022-11-19T00:14:12.741Z,68.89
2022-11-19T00:16:40.283Z,69.10
2022-11-19T00:19:07.584Z,68.84
2022-11-19T00:21:34.536Z,68.05
2022-11-19T00:24:01.466Z,68.26
2022-11-19T00:26:28.723Z,68.21
2022-11-19T00:28:55.929Z,67.99
2022-11-19T00:31:23.500Z,67.76
2022-11-19T00:33:50.940Z,68.15
2022-11-19T00:36:18.112Z,68.72
2022-11-19T00:38:45.261Z,68.76
2022-11-19T00:41:12.367Z,68.51
2022-11-19T00:43:48.857Z,68.25
2022-11-19T00:46:21.325Z,68.29
2022-11-19T00:48:49.896Z,68.00
2022-11-19T00:51:18.626Z,68.18
2022-11-19T00:53:46.493Z,68.45
2022-11-19T00:56:16.073Z,68.71
2022-11-19T00:58:44.130Z,68.60
2022-11-19T01:01:12.031Z,68.07
2022-11-19T01:03:40.730Z,67.93
2022-11-19T01:06:08.949Z,67.29
2022-11-19T01:08:36.501Z,67.28
2022-11-19T01:11:08.726Z,67.34
2022-11-19T01:13:35.905Z,67.50
2022-11-19T01:16:13.449Z,68.08
2022-11-19T01:18:41.717Z,68.10
2022-11-19T01:21:11.273Z,68.26
2022-11-19T01:23:39.938Z,68.33
2022-11-19T01:26:07.033Z,67.98
2022-11-19T01:28:34.163Z,68.02
2022-11-19T01:31:09.231Z,67.86
2022-11-19T01:33:36.667Z,67.55
2022-11-19T01:36:07.084Z,68.21
2022-11-19T01:38:34.440Z,68.30
2022-11-19T01:41:01.416Z,68.00
2022-11-19T01:43:42.393Z,68.60
2022-11-19T01:46:11.478Z,68.83
2022-11-19T01:48:44.139Z,69.54
2022-11-19T01:51:22.969Z,69.47
2022-11-19T01:53:52.062Z,69.38
2022-11-19T01:56:21.093Z,69.12
2022-11-19T01:58:52.757Z,68.95
2022-11-19T02:01:20.420Z,69.26
2022-11-19T02:03:48.257Z,68.75
2022-11-19T02:06:15.505Z,68.83
2022-11-19T02:08:48.616Z,68.59
2022-11-19T02:11:24.208Z,68.11
2022-11-19T02:13:57.257Z,67.98
2022-11-19T02:16:39.196Z,67.58
2022-11-19T02:19:34.745Z,67.03
2022-11-19T02:22:32.895Z,67.14
2022-11-19T02:25:22.957Z,66.64
2022-11-19T02:28:10.902Z,66.87
2022-11-19T02:30:46.704Z,67.48
2022-11-19T02:33:29.005Z,67.50
2022-11-19T02:36:04.290Z,67.32
2022-11-19T02:38:47.056Z,67.15
2022-11-19T02:41:34.988Z,66.78
2022-11-19T02:44:29.678Z,66.53
2022-11-19T02:46:58.156Z,66.52
2022-11-19T02:49:29.047Z,66.68
2022-11-19T02:51:56.624Z,66.56
2022-11-19T02:54:23.639Z,66.46
2022-11-19T02:56:58.937Z,66.84
2022-11-19T03:00:01.980Z,66.65
2022-11-19T03:02:52.161Z,66.44
2022-11-19T03:05:22.691Z,66.42
2022-11-19T03:07:50.552Z,66.37
2022-11-19T03:10:20.482Z,66.76
2022-11-19T03:12:56.383Z,66.35
2022-11-19T03:15:58.151Z,66.30
2022-11-19T03:18:56.957Z,65.94
2022-11-19T03:21:38.565Z,65.90
2022-11-19T03:24:46.143Z,66.01
2022-11-19T03:27:25.348Z,66.73
2022-11-19T03:29:56.918Z,66.72
2022-11-19T03:32:32.316Z,67.06
2022-11-19T03:35:04.548Z,67.27
2022-11-19T03:37:35.220Z,67.38
2022-11-19T03:40:03.676Z,67.01
2022-11-19T03:42:31.648Z,67.12
2022-11-19T03:45:12.221Z,67.14
2022-11-19T03:47:41.902Z,67.12
2022-11-19T03:50:29.697Z,67.25
2022-11-19T03:53:03.939Z,67.30
2022-11-19T03:55:40.083Z,67.61
2022-11-19T03:58:09.975Z,67.26
2022-11-19T04:00:37.222Z,66.88
2022-11-19T04:03:04.825Z,66.49
2022-11-19T04:05:31.700Z,66.08
2022-11-19T04:07:58.613Z,67.54
2022-11-19T04:10:25.598Z,66.96
2022-11-19T04:12:52.549Z,66.89
2022-11-19T04:15:19.460Z,67.15
2022-11-19T04:17:46.393Z,67.06
2022-11-19T04:20:13.646Z,67.33
2022-11-19T04:22:40.698Z,67.19
2022-11-19T04:25:08.007Z,67.05
2022-11-19T04:27:35.135Z,66.74
2022-11-19T04:30:02.395Z,66.77
2022-11-19T04:32:30.021Z,66.30
2022-11-19T04:34:56.951Z,66.37
2022-11-19T04:37:23.889Z,66.08
2022-11-19T04:39:50.859Z,66.40
2022-11-19T04:42:17.970Z,67.46
2022-11-19T04:44:44.888Z,67.41
2022-11-19T04:47:12.016Z,68.56
2022-11-19T04:49:39.076Z,68.23
2022-11-19T04:52:06.233Z,68.47
2022-11-19T04:54:33.399Z,69.01
2022-11-19T04:57:00.281Z,69.39
2022-11-19T04:59:27.189Z,68.97
2022-11-19T05:01:54.159Z,68.62
2022-11-19T05:04:21.088Z,67.53
2022-11-19T05:06:48.060Z,67.78
2022-11-19T05:09:14.971Z,68.52
2022-11-19T05:11:41.848Z,67.78
2022-11-19T05:14:08.923Z,69.30
2022-11-19T05:16:35.879Z,69.35
2022-11-19T05:19:02.890Z,68.62
2022-11-19T05:21:29.978Z,68.20
2022-11-19T05:23:56.971Z,67.31
2022-11-19T05:26:24.032Z,67.22
2022-11-19T05:28:50.974Z,66.72
2022-11-19T05:31:17.928Z,67.11
2022-11-19T05:33:44.927Z,67.48
2022-11-19T05:36:11.899Z,67.14
2022-11-19T05:38:38.924Z,67.01
2022-11-19T05:41:06.046Z,66.76
2022-11-19T05:43:33.011Z,66.17
2022-11-19T05:46:01.784Z,66.53
2022-11-19T05:48:30.396Z,66.95
2022-11-19T05:50:57.540Z,66.57
2022-11-19T05:53:24.629Z,66.28
2022-11-19T05:55:51.683Z,65.19
2022-11-19T05:58:18.712Z,65.57
2022-11-19T06:00:45.676Z,65.49
2022-11-19T06:03:12.778Z,65.57
2022-11-19T06:05:40.680Z,65.56
2022-11-19T06:08:08.151Z,65.44
2022-11-19T06:10:35.144Z,65.28
2022-11-19T06:13:02.105Z,65.61
2022-11-19T06:15:29.125Z,66.34
2022-11-19T06:17:57.047Z,65.72
2022-11-19T06:20:24.070Z,66.05
2022-11-19T06:22:52.018Z,65.41
2022-11-19T06:25:20.895Z,66.20
2022-11-19T06:27:47.927Z,65.90
2022-11-19T06:30:16.246Z,65.95
2022-11-19T06:32:43.715Z,65.92
2022-11-19T06:35:11.747Z,65.92
2022-11-19T06:37:40.129Z,65.96
2022-11-19T06:40:08.023Z,65.90
2022-11-19T06:42:38.169Z,67.08
2022-11-19T06:45:13.699Z,65.52
2022-11-19T06:47:42.174Z,65.84
2022-11-19T06:50:10.773Z,67.70
2022-11-19T06:52:38.010Z,67.21
2022-11-19T06:55:05.384Z,66.75
2022-11-19T06:57:32.436Z,66.81
2022-11-19T06:59:59.457Z,66.18
2022-11-19T07:02:26.989Z,67.04
2022-11-19T07:04:53.991Z,67.85
2022-11-19T07:07:21.562Z,66.91
2022-11-19T07:09:48.657Z,65.75
2022-11-19T07:12:15.643Z,67.14
2022-11-19T07:14:42.993Z,65.60
2022-11-19T07:17:17.976Z,65.54
2022-11-19T07:19:44.865Z,64.49
2022-11-19T07:22:11.871Z,64.78
2022-11-19T07:24:38.749Z,66.22
2022-11-19T07:27:05.755Z,64.59
2022-11-19T07:29:32.838Z,65.66
2022-11-19T07:31:59.878Z,65.49
2022-11-19T07:34:26.890Z,65.00
2022-11-19T07:36:53.823Z,63.96
2022-11-19T07:39:21.110Z,63.55
2022-11-19T07:42:07.027Z,63.12
2022-11-19T07:44:34.161Z,62.98
2022-11-19T07:47:01.238Z,62.82
2022-11-19T07:49:31.133Z,64.19
2022-11-19T07:51:58.252Z,64.61
2022-11-19T07:54:25.480Z,64.40
2022-11-19T07:56:52.422Z,63.98
2022-11-19T07:59:19.708Z,64.82
2022-11-19T08:01:46.964Z,64.71
2022-11-19T08:04:13.973Z,64.39
2022-11-19T08:06:41.040Z,63.90
2022-11-19T08:09:08.029Z,64.17
2022-11-19T08:11:35.097Z,64.20
2022-11-19T08:14:02.391Z,63.95
2022-11-19T08:16:48.231Z,63.59
2022-11-19T08:19:16.639Z,64.04
2022-11-19T08:21:46.108Z,62.40
2022-11-19T08:24:15.599Z,63.49
2022-11-19T08:26:43.845Z,64.63
2022-11-19T08:29:16.395Z,63.26
2022-11-19T08:31:46.105Z,62.92
2022-11-19T08:34:13.429Z,62.42
2022-11-19T08:36:40.800Z,63.54
2022-11-19T08:39:08.041Z,64.62
2022-11-19T08:41:53.445Z,63.96
2022-11-19T08:44:20.936Z,63.96
2022-11-19T08:46:48.085Z,64.48
2022-11-19T08:49:15.132Z,64.09
2022-11-19T08:51:42.216Z,64.34
2022-11-19T08:54:09.646Z,63.40
2022-11-19T08:56:36.777Z,64.56
2022-11-19T08:59:04.057Z,65.11
2022-11-19T09:01:31.511Z,64.36
2022-11-19T09:03:58.784Z,64.26
2022-11-19T09:06:26.302Z,64.56
2022-11-19T09:08:53.301Z,64.39
2022-11-19T09:11:22.391Z,64.52
2022-11-19T09:13:49.427Z,64.47
2022-11-19T09:16:16.911Z,63.37
2022-11-19T09:18:43.976Z,64.51
2022-11-19T09:21:12.202Z,65.01
2022-11-19T09:23:41.522Z,65.39
2022-11-19T09:26:13.630Z,62.83
2022-11-19T09:28:41.383Z,62.85
2022-11-19T09:31:14.913Z,63.36
2022-11-19T09:33:44.036Z,61.82
2022-11-19T09:36:12.095Z,62.53
2022-11-19T09:38:41.005Z,62.19
2022-11-19T09:41:22.826Z,61.89
2022-11-19T09:44:01.735Z,62.23
2022-11-19T09:47:01.340Z,62.15
2022-11-19T09:49:30.321Z,62.22
2022-11-19T09:52:05.101Z,61.75
2022-11-19T09:54:33.128Z,61.57
2022-11-19T09:57:04.529Z,61.34
2022-11-19T09:59:42.363Z,61.39
2022-11-19T10:02:21.283Z,61.38
2022-11-19T10:04:50.673Z,61.53
2022-11-19T10:07:25.498Z,61.59
2022-11-19T10:10:29.270Z,60.91
2022-11-19T10:13:17.695Z,61.85
2022-11-19T10:15:56.880Z,61.29
2022-11-19T10:19:02.274Z,61.62
2022-11-19T10:22:08.545Z,60.73
2022-11-19T10:24:49.049Z,60.43
2022-11-19T10:27:31.228Z,60.66
2022-11-19T10:30:02.582Z,59.98
2022-11-19T10:32:39.142Z,60.45
2022-11-19T10:35:20.314Z,60.69
2022-11-19T10:38:00.715Z,60.84
2022-11-19T10:40:40.427Z,60.77
2022-11-19T10:43:28.856Z,61.01
2022-11-19T10:45:57.659Z,59.69
2022-11-19T10:48:29.988Z,60.83
2022-11-19T10:50:59.758Z,61.42
2022-11-19T10:53:36.818Z,60.51
2022-11-19T10:56:09.013Z,59.49
2022-11-19T10:58:40.703Z,59.45
2022-11-19T11:01:21.015Z,59.92
2022-11-19T11:04:00.687Z,60.07
2022-11-19T11:06:29.144Z,60.21
2022-11-19T11:08:56.636Z,59.55
2022-11-19T11:12:00.527Z,59.65
2022-11-19T11:14:56.818Z,60.80
2022-11-19T11:17:32.927Z,58.77
2022-11-19T11:20:02.100Z,59.78
2022-11-19T11:22:29.479Z,59.83
2022-11-19T11:25:00.467Z,60.36
2022-11-19T11:27:33.678Z,60.07
2022-11-19T11:30:14.851Z,60.88
2022-11-19T11:32:42.813Z,59.62
2022-11-19T11:35:33.081Z,60.15
2022-11-19T11:38:02.173Z,59.92
2022-11-19T11:40:30.886Z,59.81
2022-11-19T11:42:58.747Z,59.80
2022-11-19T11:45:33.459Z,60.03
2022-11-19T11:48:16.338Z,60.36
2022-11-19T11:50:46.261Z,60.56
2022-11-19T11:53:17.465Z,60.34
2022-11-19T11:55:44.565Z,60.37
2022-11-19T11:58:34.210Z,60.97
2022-11-19T12:01:19.166Z,60.17
2022-11-19T12:03:59.374Z,60.54
2022-11-19T12:06:33.232Z,59.71
2022-11-19T12:09:02.538Z,60.70
2022-11-19T12:11:55.732Z,60.35
2022-11-19T12:14:36.781Z,60.53
2022-11-19T12:17:18.231Z,60.25
2022-11-19T12:20:08.516Z,59.86
2022-11-19T12:22:53.481Z,59.76
2022-11-19T12:25:29.316Z,60.15
2022-11-19T12:28:34.767Z,58.96
2022-11-19T12:31:08.254Z,59.57
2022-11-19T12:34:11.879Z,58.65
2022-11-19T12:36:58.798Z,59.29
2022-11-19T12:39:35.213Z,58.20
2022-11-19T12:42:32.787Z,57.76
2022-11-19T12:45:25.597Z,57.91
2022-11-19T12:48:11.889Z,57.63
2022-11-19T12:50:57.261Z,56.06
2022-11-19T12:53:38.337Z,56.51
2022-11-19T12:56:48.793Z,57.67
2022-11-19T12:59:50.717Z,57.18
2022-11-19T13:02:32.572Z,57.30
2022-11-19T13:05:05.254Z,56.81
2022-11-19T13:07:40.976Z,57.26
2022-11-19T13:10:24.060Z,57.45
2022-11-19T13:12:55.002Z,57.70
2022-11-19T13:15:28.928Z,57.68
2022-11-19T13:18:00.326Z,57.75
2022-11-19T13:20:45.502Z,57.30
2022-11-19T13:23:22.826Z,57.12
2022-11-19T13:26:13.612Z,57.23
2022-11-19T13:28:55.603Z,56.97
2022-11-19T13:31:22.612Z,56.62
2022-11-19T13:33:58.767Z,56.81
2022-11-19T13:36:33.856Z,56.83
2022-11-19T13:39:16.216Z,57.61
2022-11-19T13:42:07.505Z,58.47
2022-11-19T13:44:44.025Z,57.80
2022-11-19T13:47:56.862Z,58.28
2022-11-19T13:50:32.321Z,59.02
2022-11-19T13:53:17.454Z,57.92
2022-11-19T13:55:45.918Z,59.18
2022-11-19T13:58:22.016Z,59.45
2022-11-19T14:01:08.795Z,58.73
2022-11-19T14:03:57.836Z,58.94
2022-11-19T14:07:18.800Z,59.24
2022-11-19T14:10:18.140Z,60.11
2022-11-19T14:13:05.962Z,59.35
2022-11-19T14:16:18.921Z,59.65
2022-11-19T14:19:08.166Z,59.28
2022-11-19T14:21:53.658Z,59.61
2022-11-19T14:24:45.336Z,60.00
2022-11-19T14:27:23.074Z,59.30
2022-11-19T14:29:49.933Z,59.62
2022-11-19T14:32:16.896Z,59.55
2022-11-19T14:35:02.158Z,59.83
2022-11-19T14:37:40.417Z,60.00
2022-11-19T14:40:13.151Z,59.81
2022-11-19T14:43:18.722Z,59.94
2022-11-19T14:46:09.232Z,60.08
2022-11-19T14:48:39.093Z,60.46
2022-11-19T14:51:06.009Z,61.00
2022-11-19T14:53:36.363Z,60.77
2022-11-19T14:56:12.247Z,60.01
2022-11-19T14:58:39.631Z,60.57
2022-11-19T15:01:10.687Z,60.53
2022-11-19T15:03:38.060Z,60.32
2022-11-19T15:06:10.831Z,60.51
2022-11-19T15:08:49.626Z,60.53
2022-11-19T15:11:17.333Z,60.74
2022-11-19T15:13:46.593Z,61.31
2022-11-19T15:16:26.269Z,60.93
2022-11-19T15:19:16.449Z,61.20
2022-11-19T15:21:55.343Z,61.29
2022-11-19T15:24:31.050Z,62.31
2022-11-19T15:27:13.973Z,62.11
2022-11-19T15:30:16.903Z,62.26
2022-11-19T15:33:08.996Z,61.79
2022-11-19T15:36:09.947Z,61.95
2022-11-19T15:38:45.430Z,62.06
2022-11-19T15:41:22.625Z,61.86
2022-11-19T15:43:54.070Z,62.11
2022-11-19T15:46:33.095Z,62.65
2022-11-19T15:49:15.147Z,62.53
2022-11-19T15:52:17.875Z,62.60
2022-11-19T15:54:45.572Z,62.56
2022-11-19T15:57:23.282Z,62.41
2022-11-19T15:59:58.081Z,62.79
2022-11-19T16:02:37.794Z,63.05
2022-11-19T16:05:06.500Z,62.73
2022-11-19T16:07:34.695Z,62.77
2022-11-19T16:10:03.617Z,63.10
2022-11-19T16:12:49.118Z,62.88
2022-11-19T16:15:42.019Z,62.75
2022-11-19T16:18:18.274Z,63.07
2022-11-19T16:20:48.730Z,63.04
2022-11-19T16:23:24.151Z,62.78
2022-11-19T16:25:52.374Z,62.02
2022-11-19T16:28:31.186Z,62.16
2022-11-19T16:31:04.161Z,62.57
2022-11-19T16:33:33.358Z,62.62
2022-11-19T16:36:18.448Z,62.23
2022-11-19T16:38:53.748Z,61.98
2022-11-19T16:41:42.029Z,62.20
2022-11-19T16:44:18.900Z,61.80
2022-11-19T16:46:46.618Z,62.14
2022-11-19T16:49:41.284Z,61.94
2022-11-19T16:52:08.351Z,61.99
2022-11-19T16:54:51.414Z,62.15
2022-11-19T16:57:23.488Z,62.79
2022-11-19T17:00:17.850Z,63.21
2022-11-19T17:02:45.835Z,62.72
2022-11-19T17:05:16.557Z,62.93
2022-11-19T17:07:52.793Z,63.07
2022-11-19T17:10:23.003Z,63.34
2022-11-19T17:12:55.780Z,63.61
2022-11-19T17:15:43.996Z,64.07
2022-11-19T17:18:16.340Z,64.32
2022-11-19T17:20:46.558Z,64.37
2022-11-19T17:23:25.449Z,64.00
2022-11-19T17:26:06.966Z,63.98
2022-11-19T17:28:41.484Z,64.01
2022-11-19T17:31:16.200Z,64.26
2022-11-19T17:33:57.539Z,64.95
2022-11-19T17:36:26.721Z,65.28
2022-11-19T17:38:54.257Z,65.62
2022-11-19T17:41:43.381Z,65.59
2022-11-19T17:44:34.704Z,66.24
2022-11-19T17:47:21.365Z,66.30
2022-11-19T17:49:49.891Z,66.52
2022-11-19T17:52:27.092Z,66.56
2022-11-19T17:54:57.760Z,66.48
2022-11-19T17:57:24.953Z,66.68
2022-11-19T17:59:52.093Z,66.39
2022-11-19T18:02:20.789Z,67.21
2022-11-19T18:04:48.679Z,67.31
2022-11-19T18:07:15.775Z,67.31
2022-11-19T18:09:48.170Z,67.78
2022-11-19T18:12:17.497Z,67.75
2022-11-19T18:14:45.275Z,67.65
2022-11-19T18:17:14.692Z,68.05
2022-11-19T18:19:41.926Z,68.50
2022-11-19T18:22:20.498Z,67.88
2022-11-19T18:24:49.108Z,67.59
2022-11-19T18:27:16.896Z,67.30
2022-11-19T18:29:44.008Z,67.18
2022-11-19T18:32:12.362Z,67.22
2022-11-19T18:34:39.414Z,68.26
2022-11-19T18:37:06.362Z,68.20
2022-11-19T18:39:33.465Z,68.42
2022-11-19T18:42:00.540Z,68.45
2022-11-19T18:44:33.574Z,68.71
2022-11-19T18:47:08.748Z,68.69
2022-11-19T18:49:42.265Z,68.65
2022-11-19T18:52:15.091Z,69.98
2022-11-19T18:54:45.277Z,71.04
2022-11-19T18:57:13.392Z,70.43
2022-11-19T19:04:02.433Z,71.22
2022-11-19T19:06:29.684Z,71.06
2022-11-19T19:08:56.907Z,71.29
2022-11-19T19:11:42.570Z,70.37
2022-11-19T19:14:09.646Z,69.96
2022-11-19T19:16:36.604Z,70.11
2022-11-19T19:19:04.008Z,70.74
2022-11-19T19:21:31.222Z,70.91
2022-11-19T19:23:58.337Z,71.47
2022-11-19T19:26:25.370Z,69.89
2022-11-19T19:28:54.314Z,70.57
2022-11-19T19:31:22.910Z,71.48
2022-11-19T19:33:50.550Z,71.59
2022-11-19T19:36:18.970Z,71.90
2022-11-19T19:38:46.454Z,71.38
2022-11-19T19:41:16.887Z,71.15
2022-11-19T19:43:44.418Z,71.02
2022-11-19T19:46:15.335Z,71.45
2022-11-19T19:48:43.606Z,71.50
2022-11-19T19:51:12.111Z,71.13
2022-11-19T19:53:40.943Z,71.31
2022-11-19T19:56:17.853Z,71.23
2022-11-19T19:58:46.346Z,71.59
2022-11-19T20:01:15.206Z,70.48
2022-11-19T20:03:43.251Z,69.58
2022-11-19T20:06:12.664Z,70.33
2022-11-19T20:08:40.794Z,70.14
2022-11-19T20:11:22.337Z,70.40
2022-11-19T20:13:49.334Z,70.89
2022-11-19T20:16:18.896Z,70.69
2022-11-19T20:18:47.402Z,70.15
2022-11-19T20:21:17.870Z,70.39
2022-11-19T20:23:44.875Z,70.37
2022-11-19T20:26:15.382Z,70.84
2022-11-19T20:28:43.158Z,70.51
2022-11-19T20:31:19.373Z,70.97
2022-11-19T20:33:50.711Z,70.38
2022-11-19T20:36:17.840Z,70.68
2022-11-19T20:38:46.298Z,69.98
2022-11-19T20:41:33.724Z,70.14
2022-11-19T20:44:20.586Z,70.82
2022-11-19T20:46:57.908Z,70.59
2022-11-19T20:49:27.771Z,69.83
2022-11-19T20:51:56.226Z,69.81
2022-11-19T20:54:24.187Z,70.04
2022-11-19T20:56:52.686Z,70.95
2022-11-19T20:59:20.533Z,71.88
2022-11-19T21:01:49.672Z,70.38
2022-11-19T21:04:17.325Z,69.97
2022-11-19T21:06:44.617Z,70.59
2022-11-19T21:09:11.774Z,70.97
2022-11-19T21:11:39.150Z,70.67
2022-11-19T21:14:07.130Z,71.05
2022-11-19T21:16:34.330Z,70.89
2022-11-19T21:19:01.351Z,70.87
2022-11-19T21:21:28.405Z,71.20
2022-11-19T21:23:55.795Z,72.12
2022-11-19T21:26:25.277Z,71.95
2022-11-19T21:28:54.573Z,72.28
2022-11-19T21:31:38.123Z,72.30
2022-11-19T21:34:09.746Z,71.62
2022-11-19T21:36:37.611Z,73.47
2022-11-19T21:39:06.036Z,73.35
2022-11-19T21:41:33.506Z,72.52
2022-11-19T21:44:01.534Z,71.99
2022-11-19T21:46:28.686Z,71.12
2022-11-19T21:48:55.758Z,70.93
2022-11-19T21:51:24.925Z,70.48
2022-11-19T21:53:59.416Z,70.89
2022-11-19T21:56:28.000Z,70.97
2022-11-19T21:58:54.912Z,70.36
2022-11-19T22:01:21.995Z,71.34
2022-11-19T22:03:48.954Z,71.79
2022-11-19T22:06:16.124Z,71.71
2022-11-19T22:08:43.232Z,72.25
2022-11-19T22:11:31.172Z,72.27
2022-11-19T22:14:04.490Z,72.58
2022-11-19T22:16:33.791Z,72.35
2022-11-19T22:19:01.000Z,73.14
2022-11-19T22:21:29.460Z,73.26
2022-11-19T22:23:56.595Z,72.71
2022-11-19T22:26:23.802Z,72.22
2022-11-19T22:28:51.037Z,71.59
2022-11-19T22:31:18.035Z,72.36
2022-11-19T22:33:45.026Z,72.87
2022-11-19T22:36:12.493Z,73.31
2022-11-19T22:38:39.764Z,73.48
2022-11-19T22:41:16.463Z,73.94
2022-11-19T22:43:43.723Z,74.38
2022-11-19T22:46:12.673Z,73.08
2022-11-19T22:48:40.083Z,72.52
2022-11-19T22:51:19.127Z,72.46
2022-11-19T22:53:46.665Z,72.29
2022-11-19T22:56:16.770Z,72.75
2022-11-19T22:58:43.954Z,73.91
2022-11-19T23:01:29.497Z,74.12
2022-11-19T23:03:58.230Z,73.86
2022-11-19T23:06:25.626Z,74.32
2022-11-19T23:08:53.382Z,74.59
2022-11-19T23:11:41.011Z,74.08
2022-11-19T23:14:11.070Z,74.52
2022-11-19T23:16:39.101Z,74.17
2022-11-19T23:19:07.627Z,74.12
2022-11-19T23:21:34.895Z,74.21
2022-11-19T23:24:04.614Z,73.80
2022-11-19T23:26:33.161Z,73.75
2022-11-19T23:29:00.141Z,74.11
2022-11-19T23:31:32.962Z,74.12
2022-11-19T23:34:00.025Z,73.69
2022-11-19T23:36:32.783Z,72.90
2022-11-19T23:39:00.216Z,73.70
2022-11-19T23:41:27.875Z,72.98
2022-11-19T23:43:57.868Z,73.80
2022-11-19T23:46:30.094Z,73.14
2022-11-19T23:48:58.626Z,73.80
2022-11-19T23:51:31.146Z,73.21
2022-11-19T23:53:58.780Z,72.28
2022-11-19T23:56:26.905Z,72.46
2022-11-19T23:58:54.053Z,72.59
